Kewaunee, WI (54216)

6:29 PM CDT on May 27, 2015 (GMT -0500)
Kewaunee on Lake Michigan | | Change Station
CLOSE
Current Station
Personal Weather Station
Location: Kewaunee, WI
Elevation: 617 ft
Nearby Weather Stations

Elev 617 ft 44.43 °N, 87.50 °W | Updated 1 second ago

Clear
Clear
75.0 °F
Feels Like 77 °F
N
8.1
Wind Variable Wind from WNW
Gusts 8.1 mph

Today
High -- | Low -- °F
--% Chance of Precip.
Yesterday
High -- | Low -- °F
Precip. -- in
5:11 AM 8:23 PM
Waxing Gibbous, 71% visible
Pressure 29.28 in
Visibility 10.0 miles
Clouds Clear
Heat Index 77 °F
Dew Point 63 °F
Humidity 67%
Rainfall 0.00 in
Snow Depth Not available.
UV 2 out of 12
Pollen 2.70 out of 12
Air Quality Not available.
Flu Activity Sporadic
METAR KMTW 272256Z AUTO 27011KT 10SM CLR 23/15 A2997 RMK AO2 SLP915 T02330150

More Conditions Fewer Conditions

Pressure 29.28 in
Visibility 10.0 miles
Clouds Clear
Heat Index 77 °F
Dew Point 63 °F
Humidity 67%
Rainfall 0.00 in
Snow Depth Not available.
UV 2 out of 12
Pollen 2.70 out of 12
Air Quality Not available.
Flu Activity Sporadic
METAR KMTW 272256Z AUTO 27011KT 10SM CLR 23/15 A2997 RMK AO2 SLP915 T02330150

More Conditions Fewer Conditions

10-Day Weather Forecast

Almanac

Astronomy

May. 27, 2015 Rise Set
Actual Time
Civil Twilight
Nautical Twilight
Astronomical Twilight
Moon
Length of Visible Light
Length of Day
Tomorrow will be .
, % of the Moon is Illuminated

Today's Extremes

State Highs State Lows

Community

WunderPhotos

Upload Photos

1,824,818 photos uploaded!

WunderBlogs® & News

Nearby

Air Quality

  Air Quality AQ Index Pollutant
Not available.

Snow Depth

Station Depth Elevation

Earthquake Activity

City Distance Mag. Time & Date
Minimum magnitude displayed is 2.5.

Coastal Water Temperatures

Place Temperature

Stations

Nearby Weather Stations

Station Location Temp. Windchill Dew Point Humidity Wind Precip. Elev Updated Type